createdAt,value
2018-04-18T00:00:56.095Z,10.70
2018-04-18T00:03:29.481Z,10.60
2018-04-18T00:06:02.132Z,10.60
2018-04-18T00:08:35.044Z,10.60
2018-04-18T00:11:08.385Z,10.60
2018-04-18T00:13:41.782Z,10.50
2018-04-18T00:16:14.492Z,10.50
2018-04-18T00:18:47.413Z,10.50
2018-04-18T00:21:19.837Z,10.50
2018-04-18T00:23:52.356Z,10.40
2018-04-18T00:26:25.210Z,10.40
2018-04-18T00:28:57.928Z,10.40
2018-04-18T00:31:30.392Z,10.40
2018-04-18T00:34:03.841Z,10.30
2018-04-18T00:36:38.559Z,10.30
2018-04-18T00:39:11.533Z,10.20
2018-04-18T00:41:45.131Z,10.30
2018-04-18T00:44:17.889Z,10.20
2018-04-18T00:46:51.620Z,10.20
2018-04-18T00:49:24.373Z,10.20
2018-04-18T00:51:56.843Z,10.20
2018-04-18T00:54:29.205Z,10.10
2018-04-18T00:57:01.741Z,10.10
2018-04-18T00:59:34.853Z,10.10
2018-04-18T01:02:07.687Z,10.00
2018-04-18T01:04:41.014Z,10.00
2018-04-18T01:07:13.419Z,10.00
2018-04-18T01:09:45.950Z,10.00
2018-04-18T01:12:18.364Z,10.00
2018-04-18T01:14:51.831Z,9.90
2018-04-18T01:17:24.953Z,9.90
2018-04-18T01:19:57.832Z,9.90
2018-04-18T01:22:30.386Z,9.90
2018-04-18T01:25:03.298Z,9.80
2018-04-18T01:27:35.738Z,9.80
2018-04-18T01:30:08.516Z,9.80
2018-04-18T01:32:42.040Z,9.70
2018-04-18T01:35:16.168Z,9.70
2018-04-18T01:37:48.973Z,9.70
2018-04-18T01:40:21.730Z,9.70
2018-04-18T01:42:54.262Z,9.70
2018-04-18T01:45:27.162Z,9.70
2018-04-18T01:47:59.974Z,9.70
2018-04-18T01:50:32.659Z,9.60
2018-04-18T01:53:06.019Z,9.60
2018-04-18T01:55:38.814Z,9.60
2018-04-18T01:58:11.175Z,9.60
2018-04-18T02:00:44.336Z,9.50
2018-04-18T02:03:17.083Z,9.50
2018-04-18T02:05:49.489Z,9.50
2018-04-18T02:08:22.947Z,9.40
2018-04-18T02:10:55.422Z,9.40
2018-04-18T02:13:28.729Z,9.40
2018-04-18T02:16:01.482Z,9.40
2018-04-18T02:18:34.012Z,9.40
2018-04-18T02:21:07.515Z,9.40
2018-04-18T02:23:40.309Z,9.30
2018-04-18T02:26:12.775Z,9.40
2018-04-18T02:28:45.372Z,9.30
2018-04-18T02:31:18.760Z,9.30
2018-04-18T02:33:52.688Z,9.20
2018-04-18T02:36:25.932Z,9.20
2018-04-18T02:38:58.568Z,9.30
2018-04-18T02:41:31.406Z,9.20
2018-04-18T02:44:04.165Z,9.20
2018-04-18T02:46:37.481Z,9.20
2018-04-18T02:49:10.632Z,9.10
2018-04-18T02:51:43.601Z,9.10
2018-04-18T02:54:16.032Z,9.10
2018-04-18T02:56:49.288Z,9.00
2018-04-18T02:59:22.520Z,9.00
2018-04-18T03:01:55.253Z,9.00
2018-04-18T03:04:27.781Z,9.00
2018-04-18T03:07:00.667Z,8.90
2018-04-18T03:09:34.577Z,8.90
2018-04-18T03:12:08.973Z,8.90
2018-04-18T03:14:42.473Z,8.90
2018-04-18T03:17:15.140Z,8.90
2018-04-18T03:19:48.636Z,8.90
2018-04-18T03:22:21.303Z,8.80
2018-04-18T03:24:54.629Z,8.80
2018-04-18T03:27:27.824Z,8.80
2018-04-18T03:30:00.553Z,8.80
2018-04-18T03:32:33.979Z,8.80
2018-04-18T03:35:07.599Z,8.80
2018-04-18T03:37:40.481Z,8.80
2018-04-18T03:40:13.697Z,8.70
2018-04-18T03:42:47.900Z,8.70
2018-04-18T03:45:21.263Z,8.70
2018-04-18T03:48:01.659Z,8.70
2018-04-18T03:50:34.376Z,8.70
2018-04-18T03:53:07.619Z,8.70
2018-04-18T03:55:40.041Z,8.70
2018-04-18T03:58:13.992Z,8.60
2018-04-18T04:00:46.917Z,8.60
2018-04-18T04:03:19.272Z,8.60
2018-04-18T04:05:51.726Z,8.50
2018-04-18T04:08:24.504Z,8.60
2018-04-18T04:10:58.511Z,8.50
2018-04-18T04:13:32.398Z,8.50
2018-04-18T04:16:05.493Z,8.50
2018-04-18T04:18:56.719Z,8.50
2018-04-18T04:21:49.143Z,8.50
2018-04-18T04:24:34.629Z,8.50
2018-04-18T04:27:07.935Z,8.50
2018-04-18T04:29:40.450Z,8.50
2018-04-18T04:32:12.997Z,8.50
2018-04-18T04:34:46.434Z,8.50
2018-04-18T04:37:20.567Z,8.50
2018-04-18T04:39:53.345Z,8.50
2018-04-18T04:42:27.357Z,8.50
2018-04-18T04:45:00.379Z,8.50
2018-04-18T04:47:33.228Z,8.50
2018-04-18T04:50:06.358Z,8.50
2018-04-18T04:52:39.838Z,8.60
2018-04-18T04:55:12.234Z,8.60
2018-04-18T04:57:46.235Z,8.70
2018-04-18T05:00:18.895Z,8.70
2018-04-18T05:02:51.667Z,8.70
2018-04-18T05:05:24.491Z,8.80
2018-04-18T05:07:57.043Z,8.80
2018-04-18T05:10:29.447Z,8.90
2018-04-18T05:13:02.175Z,9.10
2018-04-18T05:15:34.746Z,9.20
2018-04-18T05:18:08.107Z,9.70
2018-04-18T05:20:40.895Z,9.70
2018-04-18T05:23:14.611Z,10.00
2018-04-18T05:25:48.178Z,10.60
2018-04-18T05:28:20.756Z,10.60
2018-04-18T05:30:53.203Z,11.00
2018-04-18T05:33:26.618Z,11.70
2018-04-18T05:35:59.463Z,11.70
2018-04-18T05:38:33.521Z,13.30
2018-04-18T05:41:06.109Z,13.30
2018-04-18T05:43:38.626Z,14.30
2018-04-18T05:46:11.842Z,16.10
2018-04-18T05:48:45.572Z,16.80
2018-04-18T05:51:18.279Z,16.80
2018-04-18T05:53:50.925Z,17.50
2018-04-18T05:56:23.599Z,18.10
2018-04-18T05:58:56.992Z,18.70
2018-04-18T06:01:29.765Z,19.20
2018-04-18T06:04:02.486Z,19.60
2018-04-18T06:06:35.665Z,20.00
2018-04-18T06:09:09.059Z,20.30
2018-04-18T06:11:41.492Z,20.60
2018-04-18T06:14:14.200Z,20.60
2018-04-18T06:16:46.776Z,20.80
2018-04-18T06:19:19.473Z,21.10
2018-04-18T06:21:52.047Z,21.40
2018-04-18T06:24:24.625Z,21.70
2018-04-18T06:26:57.193Z,22.00
2018-04-18T06:29:30.568Z,22.20
2018-04-18T06:32:03.161Z,22.20
2018-04-18T06:34:36.557Z,22.60
2018-04-18T06:37:09.021Z,22.60
2018-04-18T06:39:43.077Z,22.70
2018-04-18T06:42:16.745Z,22.80
2018-04-18T06:44:50.015Z,22.80
2018-04-18T06:47:22.387Z,22.80
2018-04-18T06:49:54.804Z,23.00
2018-04-18T06:52:28.091Z,23.10
2018-04-18T06:55:01.103Z,23.20
2018-04-18T06:57:33.457Z,23.30
2018-04-18T07:00:06.935Z,23.50
2018-04-18T07:02:39.725Z,23.50
2018-04-18T07:05:12.345Z,23.50
2018-04-18T07:07:44.780Z,23.50
2018-04-18T07:10:17.242Z,23.60
2018-04-18T07:12:49.620Z,23.60
2018-04-18T07:15:22.183Z,23.70
2018-04-18T07:17:54.860Z,23.70
2018-04-18T07:20:27.761Z,24.00
2018-04-18T07:23:00.993Z,24.30
2018-04-18T07:25:34.170Z,24.30
2018-04-18T07:28:07.487Z,24.20
2018-04-18T07:30:41.172Z,24.00
2018-04-18T07:33:14.850Z,24.10
2018-04-18T07:35:48.018Z,24.10
2018-04-18T07:38:21.316Z,24.30
2018-04-18T07:40:54.275Z,24.20
2018-04-18T07:43:26.997Z,24.30
2018-04-18T07:45:59.876Z,24.30
2018-04-18T07:48:32.517Z,24.30
2018-04-18T07:51:04.947Z,24.40
2018-04-18T07:53:37.692Z,24.50
2018-04-18T07:56:10.430Z,24.30
2018-04-18T07:58:42.984Z,24.20
2018-04-18T08:01:15.546Z,24.30
2018-04-18T08:03:49.646Z,24.50
2018-04-18T08:06:23.213Z,24.50
2018-04-18T08:08:56.109Z,24.70
2018-04-18T08:11:28.515Z,24.70
2018-04-18T08:14:01.110Z,24.70
2018-04-18T08:16:33.638Z,24.80
2018-04-18T08:19:06.204Z,24.80
2018-04-18T08:21:38.811Z,25.00
2018-04-18T08:24:11.354Z,25.10
2018-04-18T08:26:43.824Z,25.20
2018-04-18T08:29:16.295Z,25.20
2018-04-18T08:31:49.555Z,25.20
2018-04-18T08:34:22.400Z,25.20
2018-04-18T08:36:55.574Z,25.20
2018-04-18T08:39:28.177Z,25.30
2018-04-18T08:42:01.811Z,25.20
2018-04-18T08:44:34.471Z,25.20
2018-04-18T08:47:08.468Z,25.20
2018-04-18T08:49:41.340Z,25.20
2018-04-18T08:52:13.904Z,25.20
2018-04-18T08:54:46.744Z,25.30
2018-04-18T08:57:19.535Z,25.40
2018-04-18T08:59:52.350Z,25.40
2018-04-18T09:02:25.631Z,25.20
2018-04-18T09:04:58.583Z,25.00
2018-04-18T09:07:31.868Z,25.00
2018-04-18T09:10:04.482Z,24.90
2018-04-18T09:12:37.717Z,24.90
2018-04-18T09:15:10.557Z,24.90
2018-04-18T09:17:42.964Z,24.90
2018-04-18T09:20:15.438Z,24.90
2018-04-18T09:22:48.034Z,24.90
2018-04-18T09:25:20.530Z,24.90
2018-04-18T09:27:53.035Z,25.00
2018-04-18T09:30:25.709Z,24.70
2018-04-18T09:32:58.161Z,24.70
2018-04-18T09:35:31.495Z,24.90
2018-04-18T09:38:04.153Z,24.90
2018-04-18T09:40:37.314Z,24.80
2018-04-18T09:43:10.631Z,24.90
2018-04-18T09:45:43.983Z,24.80
2018-04-18T09:48:17.278Z,24.80
2018-04-18T09:50:49.951Z,24.70
2018-04-18T09:53:23.379Z,24.80
2018-04-18T09:55:56.697Z,24.90
2018-04-18T09:58:30.057Z,24.90
2018-04-18T10:01:02.828Z,24.90
2018-04-18T10:03:42.646Z,24.90
2018-04-18T10:06:15.201Z,24.80
2018-04-18T10:08:47.841Z,24.80
2018-04-18T10:11:20.953Z,24.90
2018-04-18T10:13:54.193Z,24.90
2018-04-18T10:16:27.191Z,24.90
2018-04-18T10:19:00.111Z,24.90
2018-04-18T10:21:32.663Z,25.00
2018-04-18T10:24:05.116Z,24.90
2018-04-18T10:26:38.383Z,25.00
2018-04-18T10:29:11.221Z,25.00
2018-04-18T10:31:44.521Z,25.00
2018-04-18T10:34:17.337Z,25.00
2018-04-18T10:36:50.677Z,24.70
2018-04-18T10:39:23.505Z,24.70
2018-04-18T10:42:03.056Z,24.50
2018-04-18T10:44:36.754Z,24.10
2018-04-18T10:47:09.638Z,24.10
2018-04-18T10:49:42.854Z,23.90
2018-04-18T10:52:16.240Z,23.70
2018-04-18T10:54:49.161Z,23.70
2018-04-18T10:57:22.486Z,23.30
2018-04-18T10:59:56.067Z,23.30
2018-04-18T11:02:28.526Z,23.20
2018-04-18T11:05:01.881Z,22.70
2018-04-18T11:07:34.373Z,22.70
2018-04-18T11:10:07.205Z,22.60
2018-04-18T11:12:41.363Z,22.40
2018-04-18T11:15:14.622Z,22.40
2018-04-18T11:17:47.524Z,22.40
2018-04-18T11:20:20.880Z,22.40
2018-04-18T11:22:54.127Z,22.30
2018-04-18T11:25:27.042Z,22.30
2018-04-18T11:27:59.759Z,22.30
2018-04-18T11:30:32.734Z,22.30
2018-04-18T11:33:05.231Z,22.20
2018-04-18T11:35:38.361Z,22.00
2018-04-18T11:38:11.163Z,22.00
2018-04-18T11:40:43.739Z,21.90
2018-04-18T11:43:17.116Z,22.00
2018-04-18T11:45:50.000Z,21.90
2018-04-18T11:48:24.103Z,22.00
2018-04-18T11:50:57.703Z,21.90
2018-04-18T11:53:30.555Z,21.90
2018-04-18T11:56:04.066Z,21.90
2018-04-18T11:58:36.737Z,21.80
2018-04-18T12:01:10.788Z,21.80
2018-04-18T12:03:43.624Z,21.80
2018-04-18T12:06:16.477Z,21.80
2018-04-18T12:08:49.625Z,21.80
2018-04-18T12:11:22.773Z,21.80
2018-04-18T12:13:56.057Z,21.70
2018-04-18T12:16:29.391Z,21.80
2018-04-18T12:19:02.375Z,21.80
2018-04-18T12:21:35.762Z,21.70
2018-04-18T12:24:08.508Z,21.70
2018-04-18T12:26:40.907Z,21.60
2018-04-18T12:29:13.480Z,21.60
2018-04-18T12:31:46.749Z,21.60
2018-04-18T12:34:20.148Z,21.50
2018-04-18T12:36:54.054Z,21.60
2018-04-18T12:39:27.047Z,21.50
2018-04-18T12:42:00.297Z,21.60
2018-04-18T12:44:32.769Z,21.60
2018-04-18T12:47:05.220Z,21.60
2018-04-18T12:49:37.766Z,21.60
2018-04-18T12:52:10.245Z,21.60
2018-04-18T12:54:43.680Z,21.60
2018-04-18T12:57:16.581Z,21.60
2018-04-18T12:59:49.143Z,21.60
2018-04-18T13:02:22.546Z,21.60
2018-04-18T13:04:56.159Z,21.60
2018-04-18T13:07:28.998Z,21.60
2018-04-18T13:10:01.489Z,21.60
2018-04-18T13:12:33.965Z,21.60
2018-04-18T13:15:07.281Z,21.60
2018-04-18T13:17:40.615Z,21.70
2018-04-18T13:20:13.497Z,21.60
2018-04-18T13:22:46.855Z,21.60
2018-04-18T13:25:20.565Z,21.70
2018-04-18T13:27:53.084Z,21.70
2018-04-18T13:30:26.415Z,21.60
2018-04-18T13:33:00.435Z,21.60
2018-04-18T13:35:33.613Z,21.50
2018-04-18T13:38:06.132Z,21.50
2018-04-18T13:40:38.917Z,21.50
2018-04-18T13:43:12.770Z,21.50
2018-04-18T13:45:46.097Z,21.50
2018-04-18T13:48:19.284Z,21.40
2018-04-18T13:50:52.792Z,21.50
2018-04-18T13:53:26.024Z,21.40
2018-04-18T13:55:58.606Z,21.50
2018-04-18T13:58:31.070Z,21.50
2018-04-18T14:01:04.470Z,21.50
2018-04-18T14:03:36.988Z,21.60
2018-04-18T14:06:09.630Z,21.60
2018-04-18T14:08:42.857Z,21.60
2018-04-18T14:11:15.629Z,21.50
2018-04-18T14:13:49.125Z,21.60
2018-04-18T14:16:21.868Z,21.60
2018-04-18T14:18:55.213Z,21.50
2018-04-18T14:21:27.833Z,21.50
2018-04-18T14:24:00.306Z,21.50
2018-04-18T14:26:33.175Z,21.50
2018-04-18T14:29:05.689Z,21.50
2018-04-18T14:31:38.126Z,21.50
2018-04-18T14:34:10.742Z,21.40
2018-04-18T14:36:43.439Z,21.40
2018-04-18T14:39:16.360Z,21.40
2018-04-18T14:41:49.762Z,21.40
2018-04-18T14:44:22.835Z,21.40
2018-04-18T14:46:56.078Z,21.40
2018-04-18T14:49:28.824Z,21.30
2018-04-18T14:52:01.825Z,21.40
2018-04-18T14:54:35.527Z,21.40
2018-04-18T14:57:08.713Z,21.40
2018-04-18T14:59:41.777Z,21.30
2018-04-18T15:02:15.596Z,21.30
2018-04-18T15:04:49.596Z,21.30
2018-04-18T15:07:22.153Z,21.20
2018-04-18T15:09:55.378Z,21.20
2018-04-18T15:12:28.119Z,21.20
2018-04-18T15:15:00.706Z,21.20
2018-04-18T15:17:33.065Z,21.20
2018-04-18T15:20:05.660Z,21.20
2018-04-18T15:22:39.113Z,21.10
2018-04-18T15:25:11.919Z,21.10
2018-04-18T15:27:44.435Z,21.10
2018-04-18T15:30:16.942Z,21.10
2018-04-18T15:32:49.459Z,21.10
2018-04-18T15:35:22.103Z,21.10
2018-04-18T15:37:54.751Z,21.10
2018-04-18T15:40:28.200Z,21.10
2018-04-18T15:43:02.331Z,21.10
2018-04-18T15:45:35.015Z,21.00
2018-04-18T15:48:08.371Z,21.10
2018-04-18T15:50:41.446Z,21.10
2018-04-18T15:53:14.647Z,21.10
2018-04-18T15:55:48.084Z,21.10
2018-04-18T15:58:21.321Z,21.00
2018-04-18T16:00:54.008Z,21.00
2018-04-18T16:03:26.836Z,21.00
2018-04-18T16:05:59.476Z,21.00
2018-04-18T16:08:33.623Z,20.90
2018-04-18T16:11:07.172Z,20.90
2018-04-18T16:13:41.102Z,20.90
2018-04-18T16:16:14.340Z,20.90
2018-04-18T16:18:46.833Z,20.90
2018-04-18T16:21:20.116Z,20.80
2018-04-18T16:23:52.800Z,20.80
2018-04-18T16:26:26.168Z,20.70
2018-04-18T16:28:58.983Z,20.70
2018-04-18T16:31:32.339Z,20.70
2018-04-18T16:34:05.161Z,20.60
2018-04-18T16:36:40.063Z,20.60
2018-04-18T16:39:12.957Z,20.60
2018-04-18T16:41:45.520Z,20.60
2018-04-18T16:44:18.963Z,20.60
2018-04-18T16:46:51.560Z,20.50
2018-04-18T16:49:25.414Z,20.50
2018-04-18T16:51:58.310Z,20.50
2018-04-18T16:54:31.323Z,20.50
2018-04-18T16:57:03.912Z,20.50
2018-04-18T16:59:36.431Z,20.50
2018-04-18T17:02:08.942Z,20.40
2018-04-18T17:04:41.326Z,20.40
2018-04-18T17:07:13.940Z,20.40
2018-04-18T17:09:48.377Z,20.40
2018-04-18T17:12:22.575Z,20.30
2018-04-18T17:14:55.897Z,20.20
2018-04-18T17:17:30.026Z,20.20
2018-04-18T17:20:03.139Z,20.20
2018-04-18T17:22:36.323Z,20.10
2018-04-18T17:25:09.252Z,20.10
2018-04-18T17:27:42.414Z,20.00
2018-04-18T17:30:15.104Z,20.00
2018-04-18T17:32:47.595Z,19.90
2018-04-18T17:35:20.938Z,19.90
2018-04-18T17:37:53.394Z,19.90
2018-04-18T17:40:25.894Z,19.80
2018-04-18T17:42:58.330Z,19.80
2018-04-18T17:45:31.943Z,19.80
2018-04-18T17:48:04.944Z,19.80
2018-04-18T17:50:38.243Z,19.70
2018-04-18T17:53:11.064Z,19.70
2018-04-18T17:55:44.334Z,19.60
2018-04-18T17:58:17.199Z,19.50
2018-04-18T18:00:49.879Z,19.50
2018-04-18T18:03:23.157Z,19.40
2018-04-18T18:05:56.278Z,19.40
2018-04-18T18:08:29.804Z,19.30
2018-04-18T18:11:02.223Z,19.30
2018-04-18T18:13:34.959Z,19.20
2018-04-18T18:16:08.317Z,19.10
2018-04-18T18:18:41.344Z,19.00
2018-04-18T18:21:16.243Z,18.90
2018-04-18T18:23:50.148Z,18.80
2018-04-18T18:26:23.218Z,18.80
2018-04-18T18:28:56.063Z,18.70
2018-04-18T18:31:29.198Z,18.60
2018-04-18T18:34:02.271Z,18.60
2018-04-18T18:36:34.718Z,18.50
2018-04-18T18:39:07.657Z,18.40
2018-04-18T18:41:40.429Z,18.30
2018-04-18T18:44:13.151Z,18.30
2018-04-18T18:46:47.328Z,18.10
2018-04-18T18:49:19.958Z,18.10
2018-04-18T18:51:53.245Z,18.00
2018-04-18T18:54:25.970Z,18.00
2018-04-18T18:56:58.732Z,17.80
2018-04-18T18:59:32.582Z,17.80
2018-04-18T19:02:05.713Z,17.70
2018-04-18T19:04:38.379Z,17.60
2018-04-18T19:07:10.997Z,17.50
2018-04-18T19:09:43.607Z,17.40
2018-04-18T19:12:16.561Z,17.20
2018-04-18T19:14:49.359Z,17.10
2018-04-18T19:17:21.939Z,17.00
2018-04-18T19:19:54.819Z,16.90
2018-04-18T19:22:27.712Z,16.80
2018-04-18T19:25:01.180Z,16.60
2018-04-18T19:27:34.356Z,16.50
2018-04-18T19:30:07.503Z,16.50
2018-04-18T19:32:41.052Z,16.40
2018-04-18T19:35:13.732Z,16.40
2018-04-18T19:37:46.613Z,16.30
2018-04-18T19:40:20.113Z,16.30
2018-04-18T19:42:54.005Z,16.20
2018-04-18T19:45:27.024Z,16.10
2018-04-18T19:48:00.535Z,16.10
2018-04-18T19:50:33.430Z,16.10
2018-04-18T19:53:07.337Z,16.10
2018-04-18T19:55:39.853Z,16.10
2018-04-18T19:58:13.918Z,16.00
2018-04-18T20:00:46.702Z,16.00
2018-04-18T20:03:19.347Z,16.00
2018-04-18T20:05:53.402Z,16.00
2018-04-18T20:08:26.082Z,16.00
2018-04-18T20:10:58.721Z,16.00
2018-04-18T20:13:31.491Z,16.00
2018-04-18T20:16:04.285Z,16.00
2018-04-18T20:18:36.999Z,16.00
2018-04-18T20:21:10.513Z,16.00
2018-04-18T20:23:43.055Z,16.00
2018-04-18T20:26:15.893Z,16.00
2018-04-18T20:28:49.314Z,15.90
2018-04-18T20:31:22.597Z,15.90
2018-04-18T20:33:55.772Z,15.90
2018-04-18T20:36:37.651Z,15.80
2018-04-18T20:39:10.573Z,15.80
2018-04-18T20:41:57.948Z,15.70
2018-04-18T20:44:31.327Z,15.50
2018-04-18T20:47:03.920Z,15.50
2018-04-18T20:49:37.197Z,15.50
2018-04-18T20:52:10.488Z,15.40
2018-04-18T20:54:44.809Z,15.40
2018-04-18T20:57:18.975Z,15.20
2018-04-18T20:59:51.797Z,15.20
2018-04-18T21:02:24.495Z,15.10
2018-04-18T21:04:57.178Z,15.10
2018-04-18T21:07:30.973Z,15.00
2018-04-18T21:10:03.952Z,15.00
2018-04-18T21:12:36.459Z,14.90
2018-04-18T21:15:09.345Z,14.80
2018-04-18T21:17:41.943Z,14.70
2018-04-18T21:20:14.602Z,14.60
2018-04-18T21:22:48.705Z,14.50
2018-04-18T21:25:21.352Z,14.40
2018-04-18T21:27:54.746Z,14.40
2018-04-18T21:30:32.531Z,14.30
2018-04-18T21:33:06.387Z,14.10
2018-04-18T21:35:39.787Z,14.00
2018-04-18T21:38:12.570Z,14.00
2018-04-18T21:40:47.716Z,13.90
2018-04-18T21:43:21.331Z,13.80
2018-04-18T21:45:53.896Z,13.80
2018-04-18T21:48:26.334Z,13.70
2018-04-18T21:50:59.609Z,13.60
2018-04-18T21:53:32.514Z,13.60
2018-04-18T21:56:05.083Z,13.50
2018-04-18T21:58:38.187Z,13.40
2018-04-18T22:13:30.484Z,13.10
2018-04-18T22:18:45.131Z,13.00
2018-04-18T22:21:18.078Z,13.00
2018-04-18T22:23:51.339Z,12.90
2018-04-18T22:26:24.151Z,12.90
2018-04-18T22:28:57.896Z,12.80
2018-04-18T22:31:30.688Z,12.80
2018-04-18T22:34:03.276Z,12.80
2018-04-18T22:36:37.425Z,12.70
2018-04-18T22:39:10.177Z,12.70
2018-04-18T22:41:42.663Z,12.60
2018-04-18T22:44:15.089Z,12.60
2018-04-18T22:46:48.209Z,12.50
2018-04-18T22:49:21.793Z,12.50
2018-04-18T22:51:54.575Z,12.50
2018-04-18T22:54:27.035Z,12.40
2018-04-18T22:56:59.673Z,12.40
2018-04-18T22:59:32.094Z,12.40
2018-04-18T23:02:05.368Z,12.30
2018-04-18T23:04:38.259Z,12.30
2018-04-18T23:07:10.682Z,12.30
2018-04-18T23:09:43.202Z,12.20
2018-04-18T23:12:22.841Z,12.20
2018-04-18T23:14:56.120Z,12.10
2018-04-18T23:17:28.734Z,12.10
2018-04-18T23:20:01.206Z,12.10
2018-04-18T23:22:33.744Z,12.10
2018-04-18T23:25:06.242Z,12.00
2018-04-18T23:27:39.265Z,12.00
2018-04-18T23:30:12.200Z,12.00
2018-04-18T23:32:44.801Z,11.90
2018-04-18T23:35:17.411Z,11.90
2018-04-18T23:37:50.129Z,11.90
2018-04-18T23:40:23.169Z,11.80
2018-04-18T23:42:55.686Z,11.80
2018-04-18T23:45:28.986Z,11.70
2018-04-18T23:48:01.773Z,11.70
2018-04-18T23:50:35.124Z,11.70
2018-04-18T23:53:07.868Z,11.60
2018-04-18T23:55:40.384Z,11.60
2018-04-18T23:58:13.492Z,11.60
